createdAt,value
2019-01-16T00:09:07.194Z,98.50
2019-01-16T00:12:10.291Z,98.50
2019-01-16T00:14:59.401Z,98.50
2019-01-16T00:17:59.726Z,98.50
2019-01-16T00:20:51.718Z,98.50
2019-01-16T00:23:56.447Z,98.50
2019-01-16T00:26:56.368Z,98.50
2019-01-16T00:29:40.000Z,98.50
2019-01-16T00:35:42.193Z,98.50
2019-01-16T00:38:34.774Z,98.50
2019-01-16T00:41:36.895Z,98.50
2019-01-16T00:44:25.956Z,98.50
2019-01-16T00:47:36.643Z,98.50
2019-01-16T00:50:19.597Z,98.50
2019-01-16T00:52:59.748Z,98.50
2019-01-16T00:56:00.352Z,98.50
2019-01-16T00:58:46.654Z,98.50
2019-01-16T01:01:32.569Z,98.50
2019-01-16T01:07:41.767Z,98.50
2019-01-16T01:10:25.153Z,98.50
2019-01-16T01:13:10.476Z,98.50
2019-01-16T01:16:12.956Z,98.50
2019-01-16T01:18:55.367Z,98.50
2019-01-16T01:21:32.473Z,98.50
2019-01-16T01:27:22.315Z,98.50
2019-01-16T01:36:09.244Z,98.50
2019-01-16T01:38:51.652Z,98.50
2019-01-16T01:41:57.185Z,98.50
2019-01-16T01:44:43.474Z,98.50
2019-01-16T01:47:51.249Z,98.50
2019-01-16T01:53:57.168Z,98.50
2019-01-16T01:56:47.467Z,98.50
2019-01-16T01:59:58.026Z,98.50
2019-01-16T02:02:42.379Z,98.50
2019-01-16T02:05:38.925Z,98.50
2019-01-16T02:08:15.187Z,98.50
2019-01-16T02:14:06.778Z,98.50
2019-01-16T02:16:51.897Z,98.50
2019-01-16T02:19:36.148Z,98.50
2019-01-16T02:22:20.501Z,98.50
2019-01-16T02:25:20.417Z,98.50
2019-01-16T02:31:35.925Z,98.50
2019-01-16T02:34:58.370Z,98.50
2019-01-16T02:37:59.203Z,98.50
2019-01-16T02:40:49.193Z,98.50
2019-01-16T02:43:35.537Z,98.50
2019-01-16T02:46:21.789Z,98.50
2019-01-16T02:48:59.594Z,98.50
2019-01-16T02:51:56.186Z,98.50
2019-01-16T02:54:49.280Z,98.50
2019-01-16T02:57:38.801Z,98.50
2019-01-16T03:00:38.976Z,98.50
2019-01-16T03:03:30.260Z,98.50
2019-01-16T03:06:17.113Z,98.50
2019-01-16T03:09:10.583Z,98.50
2019-01-16T03:12:00.141Z,98.50
2019-01-16T03:14:44.201Z,98.50
2019-01-16T03:17:25.136Z,98.50
2019-01-16T03:20:33.737Z,98.50
2019-01-16T03:23:31.136Z,98.50
2019-01-16T03:26:44.696Z,98.50
2019-01-16T03:29:31.626Z,98.50
2019-01-16T03:32:21.998Z,98.50
2019-01-16T03:35:05.637Z,98.50
2019-01-16T03:37:58.592Z,98.50
2019-01-16T03:40:58.997Z,98.50
2019-01-16T03:43:51.392Z,98.50
2019-01-16T03:46:52.126Z,98.50
2019-01-16T03:49:42.468Z,98.50
2019-01-16T03:55:44.198Z,98.50
2019-01-16T03:58:42.353Z,98.50
2019-01-16T04:01:31.998Z,98.50
2019-01-16T04:04:18.329Z,98.50
2019-01-16T04:13:03.660Z,98.50
2019-01-16T04:21:55.118Z,98.50
2019-01-16T04:24:34.322Z,98.50
2019-01-16T04:27:12.458Z,98.50
2019-01-16T04:29:59.522Z,98.50
2019-01-16T04:36:10.317Z,98.50
2019-01-16T04:39:10.581Z,98.50
2019-01-16T04:42:04.259Z,98.50
2019-01-16T04:47:52.519Z,98.50
2019-01-16T04:50:42.044Z,98.50
2019-01-16T04:53:27.932Z,98.50
2019-01-16T05:02:44.069Z,98.50
2019-01-16T05:05:52.436Z,98.50
2019-01-16T05:09:21.211Z,98.50
2019-01-16T05:17:51.801Z,98.50
2019-01-16T05:21:09.069Z,98.50
2019-01-16T05:27:16.040Z,98.50
2019-01-16T05:29:53.694Z,98.50
2019-01-16T05:32:25.241Z,98.50
2019-01-16T05:34:56.709Z,98.50
2019-01-16T05:37:37.456Z,98.50
2019-01-16T05:40:17.787Z,98.50
2019-01-16T05:42:52.516Z,98.50
2019-01-16T05:45:38.104Z,98.50
2019-01-16T05:48:12.620Z,98.50
2019-01-16T05:50:47.248Z,98.50
2019-01-16T05:53:24.763Z,98.50
2019-01-16T05:56:08.448Z,98.50
2019-01-16T05:58:37.256Z,98.50
2019-01-16T06:01:09.596Z,98.50
2019-01-16T06:03:38.506Z,98.50
2019-01-16T06:06:15.931Z,98.50
2019-01-16T06:08:53.373Z,98.50
2019-01-16T06:11:34.867Z,98.50
2019-01-16T06:14:03.680Z,98.50
2019-01-16T06:16:48.754Z,98.50
2019-01-16T06:19:20.246Z,98.50
2019-01-16T06:21:49.048Z,98.50
2019-01-16T06:24:20.679Z,98.50
2019-01-16T06:26:58.527Z,98.50
2019-01-16T06:29:30.263Z,98.50
2019-01-16T06:31:59.093Z,98.50
2019-01-16T06:34:44.083Z,98.50
2019-01-16T06:37:12.897Z,98.50
2019-01-16T06:39:47.433Z,98.50
2019-01-16T06:42:25.145Z,98.50
2019-01-16T06:45:10.483Z,98.50
2019-01-16T06:47:41.905Z,98.50
2019-01-16T06:50:19.715Z,98.50
2019-01-16T06:52:54.515Z,98.50
2019-01-16T06:55:38.244Z,98.50
2019-01-16T06:58:09.811Z,98.50
2019-01-16T07:00:53.679Z,98.50
2019-01-16T07:03:25.536Z,98.50
2019-01-16T07:05:54.377Z,98.50
2019-01-16T07:08:38.197Z,98.50
2019-01-16T07:11:07.092Z,98.50
2019-01-16T07:13:35.980Z,98.50
2019-01-16T07:16:05.319Z,98.50
2019-01-16T07:18:34.123Z,98.50
2019-01-16T07:21:02.957Z,98.50
2019-01-16T07:23:34.477Z,98.50
2019-01-16T07:26:03.294Z,98.50
2019-01-16T07:28:32.077Z,98.50
2019-01-16T07:31:04.192Z,98.50
2019-01-16T07:33:32.992Z,98.50
2019-01-16T07:36:10.648Z,98.50
2019-01-16T07:38:42.097Z,98.50
2019-01-16T07:41:11.059Z,98.50
2019-01-16T07:43:42.679Z,98.50
2019-01-16T07:46:17.300Z,98.50
2019-01-16T07:48:48.900Z,98.50
2019-01-16T07:51:29.764Z,98.50
2019-01-16T07:54:07.644Z,98.50
2019-01-16T07:56:36.460Z,98.50
2019-01-16T07:59:08.076Z,98.50
2019-01-16T08:01:42.925Z,98.50
2019-01-16T08:04:20.591Z,98.50
2019-01-16T08:07:05.785Z,98.50
2019-01-16T08:09:52.488Z,98.50
2019-01-16T08:12:42.734Z,98.50
2019-01-16T08:15:25.915Z,98.50
2019-01-16T08:18:00.855Z,98.50
2019-01-16T08:20:32.691Z,98.30
2019-01-16T08:23:04.549Z,98.10
2019-01-16T08:25:50.022Z,98.00
2019-01-16T08:28:27.850Z,97.60
2019-01-16T08:30:59.999Z,97.60
2019-01-16T08:33:28.833Z,97.10
2019-01-16T08:36:09.809Z,97.00
2019-01-16T08:38:38.634Z,97.40
2019-01-16T08:41:23.778Z,96.70
2019-01-16T08:43:52.712Z,96.80
2019-01-16T08:46:33.447Z,95.90
2019-01-16T08:49:18.614Z,94.50
2019-01-16T08:51:59.232Z,94.50
2019-01-16T08:54:30.798Z,93.50
2019-01-16T08:57:16.203Z,93.10
2019-01-16T08:59:47.925Z,93.00
2019-01-16T09:02:25.543Z,92.80
2019-01-16T09:04:54.412Z,93.20
2019-01-16T09:07:23.247Z,93.60
2019-01-16T09:09:52.628Z,94.00
2019-01-16T09:12:24.261Z,94.40
2019-01-16T09:14:53.050Z,94.20
2019-01-16T09:17:27.869Z,94.20
2019-01-16T09:20:05.646Z,93.80
2019-01-16T09:22:46.386Z,93.60
2019-01-16T09:25:18.309Z,93.30
2019-01-16T09:27:59.116Z,92.60
2019-01-16T09:30:31.064Z,92.50
2019-01-16T09:32:59.894Z,93.50
2019-01-16T09:35:37.755Z,92.60
2019-01-16T09:38:23.072Z,92.30
2019-01-16T09:40:52.004Z,92.00
2019-01-16T09:43:37.123Z,91.70
2019-01-16T09:46:12.099Z,92.00
2019-01-16T09:48:41.064Z,91.90
2019-01-16T09:51:09.915Z,90.90
2019-01-16T09:53:44.822Z,91.20
2019-01-16T09:56:13.656Z,90.90
2019-01-16T09:59:00.654Z,91.60
2019-01-16T10:01:46.024Z,91.00
2019-01-16T10:04:14.901Z,91.20
2019-01-16T10:06:49.479Z,91.60
2019-01-16T10:09:24.127Z,91.20
2019-01-16T10:11:58.806Z,91.40
2019-01-16T10:14:30.671Z,91.30
2019-01-16T10:16:59.486Z,91.50
2019-01-16T10:19:28.272Z,91.30
2019-01-16T10:21:57.580Z,91.10
2019-01-16T10:24:29.380Z,90.50
2019-01-16T10:26:58.157Z,91.10
2019-01-16T10:29:43.327Z,91.20
2019-01-16T10:32:17.924Z,90.00
2019-01-16T10:35:00.409Z,90.40
2019-01-16T10:37:32.107Z,90.10
2019-01-16T10:40:10.112Z,89.00
2019-01-16T10:42:38.922Z,88.50
2019-01-16T10:45:10.881Z,88.40
2019-01-16T10:47:39.783Z,88.40
2019-01-16T10:50:11.297Z,87.90
2019-01-16T10:52:55.207Z,88.40
2019-01-16T10:55:36.359Z,88.20
2019-01-16T10:58:27.318Z,88.20
2019-01-16T11:00:59.139Z,87.70
2019-01-16T11:03:30.836Z,88.00
2019-01-16T11:06:05.648Z,87.80
2019-01-16T11:08:40.639Z,86.70
2019-01-16T11:11:21.591Z,87.10
2019-01-16T11:13:50.409Z,86.00
2019-01-16T11:16:35.616Z,86.20
2019-01-16T11:19:10.041Z,86.20
2019-01-16T11:21:55.545Z,86.10
2019-01-16T11:24:30.077Z,85.80
2019-01-16T11:26:58.928Z,86.10
2019-01-16T11:29:44.449Z,85.70
2019-01-16T11:32:31.118Z,85.40
2019-01-16T11:35:08.647Z,84.90
2019-01-16T11:37:54.049Z,85.60
2019-01-16T11:40:24.083Z,85.50
2019-01-16T11:43:02.002Z,84.40
2019-01-16T11:45:42.531Z,85.00
2019-01-16T11:48:20.548Z,84.80
2019-01-16T11:51:01.470Z,84.10
2019-01-16T11:53:36.278Z,84.40
2019-01-16T11:56:08.328Z,85.20
2019-01-16T11:58:46.458Z,85.20
2019-01-16T12:01:15.500Z,85.90
2019-01-16T12:03:59.418Z,86.30
2019-01-16T12:06:40.388Z,86.00
2019-01-16T12:09:15.158Z,86.90
2019-01-16T12:11:43.982Z,86.40
2019-01-16T12:14:12.882Z,85.80
2019-01-16T12:16:41.657Z,85.70
2019-01-16T12:19:16.652Z,85.20
2019-01-16T12:21:57.390Z,85.00
2019-01-16T12:24:28.755Z,85.30
2019-01-16T12:27:12.759Z,85.30
2019-01-16T12:29:59.648Z,84.80
2019-01-16T12:32:40.569Z,84.90
2019-01-16T12:35:09.465Z,84.60
2019-01-16T12:37:54.548Z,83.80
2019-01-16T12:40:40.013Z,83.90
2019-01-16T12:43:25.540Z,84.10
2019-01-16T12:45:57.513Z,84.30
2019-01-16T12:48:29.215Z,84.60
2019-01-16T12:50:58.025Z,83.70
2019-01-16T12:53:26.860Z,83.10
2019-01-16T12:56:12.337Z,83.30
2019-01-16T12:58:50.243Z,82.20
2019-01-16T13:01:22.059Z,81.80
2019-01-16T13:03:53.655Z,82.20
2019-01-16T13:09:03.195Z,81.50
2019-01-16T13:11:44.187Z,81.70
2019-01-16T13:14:13.023Z,82.10
2019-01-16T13:16:59.668Z,82.00
2019-01-16T13:19:37.056Z,81.70
2019-01-16T13:22:24.342Z,82.00
2019-01-16T13:24:53.804Z,81.90
2019-01-16T13:27:34.895Z,82.80
2019-01-16T13:30:06.532Z,83.50
2019-01-16T13:32:38.115Z,83.20
2019-01-16T13:35:13.364Z,84.70
2019-01-16T13:37:47.996Z,84.80
2019-01-16T13:40:19.750Z,85.00
2019-01-16T13:42:48.715Z,85.20
2019-01-16T13:45:17.631Z,85.00
2019-01-16T13:47:46.409Z,84.50
2019-01-16T13:50:18.131Z,85.30
2019-01-16T13:52:55.617Z,85.20
2019-01-16T13:55:33.352Z,84.60
2019-01-16T13:58:20.081Z,84.10
2019-01-16T14:00:48.933Z,84.30
2019-01-16T14:03:20.596Z,84.30
2019-01-16T14:05:49.409Z,84.40
2019-01-16T14:08:30.115Z,84.30
2019-01-16T14:10:58.935Z,84.00
2019-01-16T14:13:30.493Z,83.80
2019-01-16T14:15:59.371Z,84.00
2019-01-16T14:18:44.924Z,83.60
2019-01-16T14:21:22.740Z,84.20
2019-01-16T14:24:00.709Z,84.50
2019-01-16T14:26:35.502Z,84.60
2019-01-16T14:29:20.863Z,84.70
2019-01-16T14:31:52.435Z,85.00
2019-01-16T14:34:24.343Z,84.50
2019-01-16T14:37:08.100Z,85.00
2019-01-16T14:39:55.076Z,84.90
2019-01-16T14:42:23.892Z,84.70
2019-01-16T14:44:58.734Z,85.30
2019-01-16T14:47:30.550Z,85.40
2019-01-16T14:50:15.946Z,85.50
2019-01-16T14:52:47.430Z,85.60
2019-01-16T14:55:34.146Z,85.90
2019-01-16T14:58:03.058Z,85.10
2019-01-16T15:00:48.070Z,85.20
2019-01-16T15:03:34.922Z,85.60
2019-01-16T15:06:18.807Z,86.30
2019-01-16T15:09:04.338Z,86.40
2019-01-16T15:11:48.240Z,86.70
2019-01-16T15:14:20.021Z,86.70
2019-01-16T15:16:48.872Z,86.80
2019-01-16T15:19:34.229Z,87.20
2019-01-16T15:22:17.952Z,87.40
2019-01-16T15:24:46.843Z,88.00
2019-01-16T15:27:18.282Z,88.30
2019-01-16T15:30:03.243Z,88.90
2019-01-16T15:32:48.295Z,89.70
2019-01-16T15:35:17.003Z,90.20
2019-01-16T15:37:54.853Z,90.90
2019-01-16T15:40:40.261Z,91.10
2019-01-16T15:43:14.883Z,91.60
2019-01-16T15:45:55.548Z,92.00
2019-01-16T15:48:30.382Z,92.30
2019-01-16T15:50:59.190Z,92.50
2019-01-16T15:53:33.885Z,92.90
2019-01-16T15:56:08.524Z,93.60
2019-01-16T15:58:53.666Z,93.80
2019-01-16T16:01:22.556Z,93.80
2019-01-16T16:03:51.367Z,94.10
2019-01-16T16:06:29.663Z,94.40
2019-01-16T16:08:58.463Z,94.90
2019-01-16T16:11:34.659Z,95.10
2019-01-16T16:14:13.419Z,95.40
2019-01-16T16:16:58.929Z,95.60
2019-01-16T16:19:27.716Z,95.50
2019-01-16T16:22:02.244Z,95.70
2019-01-16T16:24:31.072Z,96.00
2019-01-16T16:27:16.209Z,95.80
2019-01-16T16:29:48.149Z,95.80
2019-01-16T16:32:17.162Z,96.10
2019-01-16T16:35:03.885Z,96.30
2019-01-16T16:37:35.738Z,96.40
2019-01-16T16:40:25.044Z,96.60
2019-01-16T16:43:11.870Z,96.80
2019-01-16T16:45:55.744Z,96.90
2019-01-16T16:48:24.537Z,96.90
2019-01-16T16:50:54.055Z,97.20
2019-01-16T16:53:32.018Z,97.40
2019-01-16T16:56:03.925Z,97.80
2019-01-16T16:58:41.595Z,97.80
2019-01-16T17:01:27.045Z,98.00
2019-01-16T17:04:07.720Z,97.90
2019-01-16T17:06:36.498Z,98.00
2019-01-16T17:09:19.619Z,98.00
2019-01-16T17:12:04.787Z,97.90
2019-01-16T17:14:36.355Z,97.80
2019-01-16T17:17:05.275Z,98.00
2019-01-16T17:19:36.765Z,98.00
2019-01-16T17:22:22.187Z,98.00
2019-01-16T17:25:02.892Z,98.10
2019-01-16T17:27:31.679Z,98.00
2019-01-16T17:30:16.894Z,98.30
2019-01-16T17:32:54.480Z,98.50
2019-01-16T17:35:35.343Z,98.50
2019-01-16T17:38:04.179Z,98.50
2019-01-16T17:40:47.895Z,98.40
2019-01-16T17:43:22.401Z,98.30
2019-01-16T17:45:57.222Z,98.40
2019-01-16T17:48:31.145Z,98.20
2019-01-16T17:51:16.741Z,98.20
2019-01-16T17:54:01.942Z,98.30
2019-01-16T17:56:42.511Z,98.40
2019-01-16T17:59:11.614Z,98.40
2019-01-16T18:01:52.494Z,98.10
2019-01-16T18:04:33.162Z,98.20
2019-01-16T18:07:11.027Z,98.20
2019-01-16T18:09:45.840Z,98.20
2019-01-16T18:12:14.807Z,98.10
2019-01-16T18:14:46.593Z,97.90
2019-01-16T18:17:18.297Z,97.80
2019-01-16T18:19:56.306Z,98.00
2019-01-16T18:22:37.233Z,98.00
2019-01-16T18:25:11.634Z,97.90
2019-01-16T18:27:43.609Z,98.00
2019-01-16T18:30:32.562Z,98.20
2019-01-16T18:33:04.045Z,98.00
2019-01-16T18:35:35.837Z,97.70
2019-01-16T18:38:04.808Z,97.90
2019-01-16T18:40:49.834Z,97.80
2019-01-16T18:43:18.723Z,97.60
2019-01-16T18:46:04.138Z,97.60
2019-01-16T18:48:33.126Z,97.50
2019-01-16T18:51:18.564Z,97.50
2019-01-16T18:53:47.429Z,98.10
2019-01-16T18:56:22.364Z,97.80
2019-01-16T18:58:53.897Z,97.80
2019-01-16T19:01:22.701Z,98.50
2019-01-16T19:04:00.785Z,98.50
2019-01-16T19:06:38.586Z,98.50
2019-01-16T19:09:08.677Z,98.50
2019-01-16T19:11:37.691Z,98.50
2019-01-16T19:14:06.522Z,98.50
2019-01-16T19:16:35.522Z,98.50
2019-01-16T19:19:04.378Z,98.50
2019-01-16T19:21:33.146Z,98.50
2019-01-16T19:24:16.817Z,98.50
2019-01-16T19:26:57.861Z,98.50
2019-01-16T19:29:29.728Z,98.50
2019-01-16T19:31:58.569Z,98.50
2019-01-16T19:34:27.378Z,98.50
2019-01-16T19:37:05.261Z,98.50
2019-01-16T19:39:40.169Z,98.50
2019-01-16T19:42:09.013Z,98.50
2019-01-16T19:44:46.602Z,98.50
2019-01-16T19:47:21.359Z,98.50
2019-01-16T19:49:52.881Z,98.50
2019-01-16T19:52:24.652Z,98.50
2019-01-16T19:55:05.624Z,98.50
2019-01-16T19:57:34.478Z,98.50
2019-01-16T20:00:12.359Z,98.50
2019-01-16T20:02:41.198Z,98.50
2019-01-16T20:05:16.015Z,98.50
2019-01-16T20:07:47.837Z,98.50
2019-01-16T20:10:16.864Z,98.50
2019-01-16T20:12:48.500Z,98.50
2019-01-16T20:15:20.032Z,98.50
2019-01-16T20:17:57.832Z,98.50
2019-01-16T20:20:35.753Z,98.50
2019-01-16T20:23:19.918Z,98.50
2019-01-16T20:26:07.793Z,98.50
2019-01-16T20:28:52.442Z,98.50
2019-01-16T20:31:33.194Z,98.50
2019-01-16T20:34:04.707Z,98.50
2019-01-16T20:36:34.684Z,98.50
2019-01-16T20:39:09.434Z,98.50
2019-01-16T20:41:47.482Z,98.50
2019-01-16T20:44:16.424Z,98.50
2019-01-16T20:46:57.010Z,98.50
2019-01-16T20:49:25.846Z,98.50
2019-01-16T20:51:54.785Z,98.50
2019-01-16T20:54:38.819Z,98.50
2019-01-16T20:57:13.742Z,98.50
2019-01-16T20:59:58.817Z,98.50
2019-01-16T21:02:30.429Z,98.50
2019-01-16T21:05:11.009Z,97.40
2019-01-16T21:07:45.803Z,97.10
2019-01-16T21:10:14.915Z,95.90
2019-01-16T21:12:53.026Z,95.00
2019-01-16T21:15:33.959Z,94.40
2019-01-16T21:18:05.782Z,93.90
2019-01-16T21:20:52.881Z,94.10
2019-01-16T21:23:23.901Z,94.00
2019-01-16T21:25:52.443Z,94.10
2019-01-16T21:28:21.282Z,94.40
2019-01-16T21:30:55.796Z,94.60
2019-01-16T21:33:24.610Z,94.70
2019-01-16T21:36:09.724Z,94.70
2019-01-16T21:38:38.578Z,94.80
2019-01-16T21:41:16.462Z,94.80
2019-01-16T21:44:02.113Z,95.40
2019-01-16T21:46:30.950Z,95.50
2019-01-16T21:49:05.856Z,95.30
2019-01-16T21:51:46.789Z,95.10
2019-01-16T21:54:15.622Z,94.80
2019-01-16T21:56:59.539Z,94.60
2019-01-16T21:59:37.374Z,94.80
2019-01-16T22:02:06.359Z,94.60
2019-01-16T22:04:35.159Z,94.20
2019-01-16T22:07:06.694Z,94.20
2019-01-16T22:09:35.457Z,94.20
2019-01-16T22:12:13.336Z,93.90
2019-01-16T22:14:44.955Z,93.50
2019-01-16T22:17:30.305Z,93.80
2019-01-16T22:20:04.986Z,95.00
2019-01-16T22:22:33.819Z,95.50
2019-01-16T22:25:19.220Z,95.60
2019-01-16T22:27:50.799Z,95.20
2019-01-16T22:30:19.701Z,95.00
2019-01-16T22:33:05.078Z,94.90
2019-01-16T22:35:45.853Z,95.00
2019-01-16T22:38:20.640Z,94.90
2019-01-16T22:40:52.414Z,94.50
2019-01-16T22:43:27.016Z,94.50
2019-01-16T22:46:01.766Z,94.60
2019-01-16T22:48:47.167Z,95.20
2019-01-16T22:51:21.768Z,95.30
2019-01-16T22:54:08.788Z,95.20
2019-01-16T22:56:55.619Z,94.70
2019-01-16T22:59:27.491Z,95.00
2019-01-16T23:01:56.285Z,95.00
2019-01-16T23:04:25.109Z,95.40
2019-01-16T23:06:53.921Z,94.80
2019-01-16T23:09:34.595Z,95.40
2019-01-16T23:12:03.413Z,95.70
2019-01-16T23:14:33.135Z,95.90
2019-01-16T23:17:18.266Z,95.60
2019-01-16T23:20:03.410Z,96.10
2019-01-16T23:22:48.512Z,96.10
2019-01-16T23:25:29.222Z,97.40
2019-01-16T23:28:13.340Z,97.30
2019-01-16T23:30:44.907Z,97.30
2019-01-16T23:33:25.761Z,97.30
2019-01-16T23:36:00.656Z,96.80
2019-01-16T23:38:29.465Z,96.70
2019-01-16T23:41:14.987Z,97.00
2019-01-16T23:43:43.825Z,96.60
2019-01-16T23:46:30.799Z,96.80
2019-01-16T23:48:59.609Z,96.60
2019-01-16T23:51:28.418Z,97.30
2019-01-16T23:53:57.208Z,96.20
2019-01-16T23:56:40.905Z,96.50
2019-01-16T23:59:09.691Z,96.50
